Time;durP1;ratioP1;P1;durP2;ratioP2;P2;SDS_P1;SDS_P2;PMS_P1;PMS_P2;Temp;Humidity;BMP_temperature;BMP_pressure;BME280_temperature;BME280_humidity;BME280_pressure;Samples;Min_cycle;Max_cycle;Signal;HPM_P1;HPM_P2
2022/05/22 00:02:03;;;;;;;9.45;3.30;;;;;;;14.81;100.00;96961.83;1703193;83;20990;-70
2022/05/22 00:04:30;;;;;;;6.65;2.70;;;;;;;14.73;100.00;96985.48;1703183;83;21038;-72
2022/05/22 00:06:57;;;;;;;7.72;3.20;;;;;;;14.64;100.00;97023.84;1703205;83;21105;-71
2022/05/22 00:09:24;;;;;;;10.55;2.90;;;;;;;14.55;100.00;97058.31;1723513;83;21006;-69
2022/05/22 00:11:51;;;;;;;7.50;3.40;;;;;;;14.47;100.00;97090.13;1703156;83;20998;-72
2022/05/22 00:14:18;;;;;;;8.05;3.50;;;;;;;14.38;100.00;97112.94;1689835;84;21085;-71
2022/05/22 00:16:46;;;;;;;9.45;3.10;;;;;;;14.29;100.00;97156.67;1671640;84;21149;-70
2022/05/22 00:19:20;;;;;;;11.95;3.00;;;;;;;14.21;100.00;97187.87;1698842;84;21574;-70
2022/05/22 00:21:48;;;;;;;8.48;3.58;;;;;;;14.10;100.00;97220.70;1698679;84;21553;-70
2022/05/22 00:24:21;;;;;;;8.43;3.40;;;;;;;14.00;100.00;97258.12;1695333;84;21105;-69
2022/05/22 00:26:49;;;;;;;6.53;2.90;;;;;;;13.89;100.00;97274.08;1699202;84;21014;-71
2022/05/22 00:29:16;;;;;;;14.55;2.85;;;;;;;13.81;100.00;97316.94;1699164;84;21014;-70
2022/05/22 00:31:43;;;;;;;10.25;3.00;;;;;;;13.73;100.00;97341.83;1699369;84;21054;-71
2022/05/22 00:34:10;;;;;;;7.03;3.10;;;;;;;13.67;100.00;97371.38;1699191;84;21119;-70
2022/05/22 00:36:37;;;;;;;10.95;3.10;;;;;;;13.62;100.00;97410.16;1699431;84;21555;-72
2022/05/22 00:39:04;;;;;;;11.50;3.20;;;;;;;13.55;100.00;97442.11;1699423;84;21500;-70
2022/05/22 00:41:32;;;;;;;9.08;2.58;;;;;;;13.43;100.00;97493.80;1699302;83;21114;-70
2022/05/22 00:44:00;;;;;;;9.83;2.90;;;;;;;13.43;100.00;97493.80;1699425;84;21078;-70
2022/05/22 00:46:29;;;;;;;6.10;2.70;;;;;;;13.33;100.00;97543.06;1699517;84;21058;-69
2022/05/22 00:49:02;;;;;;;9.85;2.80;;;;;;;13.33;100.00;97543.06;1699153;84;21069;-72
2022/05/22 00:51:48;;;;;;;12.00;2.90;;;;;;;13.29;100.00;97572.56;1664519;86;21034;-69
2022/05/22 00:54:20;;;;;;;8.68;2.72;;;;;;;13.27;100.00;97586.91;1663832;86;21164;-70
2022/05/22 00:56:57;;;;;;;3.62;2.55;;;;;;;13.22;100.00;97608.00;1646646;87;21127;-71
2022/05/22 00:59:27;;;;;;;14.50;2.90;;;;;;;13.19;100.00;97625.31;1646695;87;21089;-69
2022/05/22 01:01:55;;;;;;;8.03;2.80;;;;;;;13.15;100.00;97625.52;1646772;87;21029;-69
2022/05/22 01:04:25;;;;;;;7.65;2.98;;;;;;;13.09;100.00;97639.55;1646603;87;21091;-71
2022/05/22 01:06:53;;;;;;;10.03;3.02;;;;;;;13.05;100.00;97651.94;1624918;87;21627;-69
2022/05/22 01:09:21;;;;;;;6.58;2.98;;;;;;;13.00;100.00;97647.27;1646513;87;21081;-70
2022/05/22 01:11:52;;;;;;;6.60;2.80;;;;;;;12.96;100.00;97658.33;1646862;87;21109;-70
2022/05/22 01:14:22;;;;;;;10.93;3.00;;;;;;;12.90;100.00;97657.39;1634832;86;21112;-69
2022/05/22 01:16:50;;;;;;;11.88;3.60;;;;;;;12.88;100.00;97660.07;1619490;87;21122;-70
2022/05/22 01:19:23;;;;;;;11.15;3.83;;;;;;;12.83;100.00;97667.57;1620205;88;21018;-70
2022/05/22 01:22:01;;;;;;;8.35;3.30;;;;;;;12.83;100.00;97670.83;1620340;88;21046;-70
2022/05/22 01:24:28;;;;;;;12.98;3.72;;;;;;;12.82;100.00;97667.30;1620370;88;21126;-71
2022/05/22 01:26:56;;;;;;;12.33;3.35;;;;;;;12.79;100.00;97677.81;1620083;88;21077;-70
2022/05/22 01:29:25;;;;;;;10.53;3.47;;;;;;;12.75;100.00;97683.41;1619550;88;21095;-70
2022/05/22 01:31:52;;;;;;;7.58;2.45;;;;;;;12.72;100.00;97682.02;1620395;88;21093;-70
2022/05/22 01:34:20;;;;;;;6.45;2.77;;;;;;;12.70;100.00;97682.26;1620270;88;21073;-70
2022/05/22 01:36:47;;;;;;;12.43;2.90;;;;;;;12.69;100.00;97671.66;1620439;88;21037;-70
2022/05/22 01:39:15;;;;;;;7.17;2.60;;;;;;;12.66;100.00;97666.20;1620199;88;21107;-70
2022/05/22 01:41:43;;;;;;;5.50;2.52;;;;;;;12.64;100.00;97667.48;1612020;88;21578;-69
2022/05/22 01:44:10;;;;;;;5.25;2.60;;;;;;;12.63;100.00;97664.50;1620240;88;21110;-69
2022/05/22 01:46:38;;;;;;;12.23;3.10;;;;;;;12.62;100.00;97666.91;1594288;88;21085;-68
2022/05/22 01:49:07;;;;;;;8.33;3.12;;;;;;;12.59;100.00;97660.09;1617333;88;21114;-70
2022/05/22 01:51:37;;;;;;;9.20;3.70;;;;;;;12.58;100.00;97653.56;1616623;88;21102;-70
2022/05/22 01:54:04;;;;;;;14.85;4.00;;;;;;;12.54;100.00;97667.59;1630871;86;21042;-71
2022/05/22 01:56:33;;;;;;;11.83;4.25;;;;;;;12.54;100.00;97664.88;1670876;86;21097;-71
2022/05/22 01:59:03;;;;;;;10.32;4.15;;;;;;;12.52;100.00;97677.85;1671263;86;21550;-70
2022/05/22 02:01:38;;;;;;;13.00;4.85;;;;;;;12.51;100.00;97698.42;1667827;86;21118;-71
2022/05/22 02:04:06;;;;;;;9.30;4.25;;;;;;;12.48;100.00;97708.38;1671302;86;21085;-69
2022/05/22 02:08:18;;;;;;;11.33;3.87;;;;;;;12.47;100.00;97700.79;1671241;86;21472;-70
2022/05/22 02:09:09;;;;;;;12.25;3.70;;;;;;;12.48;100.00;97702.45;1596659;87;21026;-70
2022/05/22 02:11:37;;;;;;;15.68;4.28;;;;;;;12.52;100.00;97688.70;1624453;88;21670;-70
2022/05/22 02:14:05;;;;;;;11.50;4.30;;;;;;;12.54;100.00;97690.63;1629772;87;21039;-69
2022/05/22 02:16:32;;;;;;;10.08;4.45;;;;;;;12.58;100.00;97701.81;1615658;88;21085;-70
2022/05/22 02:18:59;;;;;;;12.18;4.20;;;;;;;12.59;100.00;97696.70;1637585;88;21015;-69
2022/05/22 02:21:29;;;;;;;7.12;3.85;;;;;;;12.62;100.00;97710.28;1616018;88;21019;-69
2022/05/22 02:23:56;;;;;;;8.18;4.00;;;;;;;12.65;100.00;97722.02;1637424;88;21527;-70
2022/05/22 02:26:23;;;;;;;9.63;4.03;;;;;;;12.68;100.00;97739.98;1615740;88;21152;-70
2022/05/22 02:28:50;;;;;;;8.45;3.85;;;;;;;12.71;100.00;97746.79;1637495;88;21666;-71
2022/05/22 02:31:18;;;;;;;10.85;3.75;;;;;;;12.71;100.00;97755.77;1637366;88;21043;-70
2022/05/22 02:33:47;;;;;;;6.65;2.98;;;;;;;12.73;100.00;97773.97;1634207;88;21058;-70
2022/05/22 02:36:17;;;;;;;6.85;3.12;;;;;;;12.76;100.00;97781.33;1637450;86;21031;-69
2022/05/22 02:38:45;;;;;;;9.98;3.42;;;;;;;12.76;100.00;97792.99;1637654;88;21543;-69
2022/05/22 02:41:16;;;;;;;7.12;2.70;;;;;;;12.78;100.00;97798.18;1637549;88;21091;-70
2022/05/22 02:43:46;;;;;;;8.80;3.22;;;;;;;12.80;100.00;97807.73;1637250;88;21126;-70
2022/05/22 02:46:14;;;;;;;11.55;3.70;;;;;;;12.81;100.00;97818.86;1637356;88;21063;-70
2022/05/22 02:48:42;;;;;;;9.53;3.65;;;;;;;12.83;100.00;97831.64;1637529;88;21105;-71
2022/05/22 02:51:13;;;;;;;7.97;3.20;;;;;;;12.84;100.00;97841.98;1637513;88;21088;-69
2022/05/22 02:53:40;;;;;;;9.80;2.72;;;;;;;12.84;100.00;97852.83;1638623;87;21104;-69
2022/05/22 02:56:15;;;;;;;5.65;2.72;;;;;;;12.82;100.00;97863.06;1633146;87;21618;-70
2022/05/22 02:58:44;;;;;;;8.95;2.67;;;;;;;12.80;100.00;97872.83;1553423;92;21073;-70
2022/05/22 03:01:11;;;;;;;6.50;2.15;;;;;;;12.79;100.00;97879.84;1553887;92;21133;-69
2022/05/22 03:03:40;;;;;;;2.37;1.90;;;;;;;12.77;100.00;97896.34;1553706;92;21220;-70
2022/05/22 03:08:53;;;;;;;7.53;1.95;;;;;;;12.74;100.00;97892.74;1571489;91;21096;-70
2022/05/22 03:11:20;;;;;;;3.77;1.65;;;;;;;12.74;100.00;97900.88;1526415;93;21091;-70
2022/05/22 03:13:48;;;;;;;4.10;2.50;;;;;;;12.72;100.00;97907.08;1524074;93;21575;-69
2022/05/22 03:16:16;;;;;;;5.92;2.20;;;;;;;12.71;100.00;97910.83;1569540;91;21043;-69
2022/05/22 03:18:45;;;;;;;6.75;2.50;;;;;;;12.73;100.00;97914.16;1566507;91;21114;-69
2022/05/22 03:21:14;;;;;;;5.92;2.33;;;;;;;12.73;100.00;97914.16;1566866;91;21079;-69
2022/05/22 03:23:41;;;;;;;5.45;2.60;;;;;;;12.73;100.00;97912.27;1549599;91;21090;-69
2022/05/22 03:26:10;;;;;;;5.25;2.33;;;;;;;12.73;100.00;97902.77;1569462;91;21098;-70
2022/05/22 03:28:37;;;;;;;7.47;2.20;;;;;;;12.75;100.00;97913.89;1548948;91;21127;-69
2022/05/22 03:31:05;;;;;;;9.08;2.45;;;;;;;12.76;100.00;97912.84;1569711;91;21103;-70
2022/05/22 03:33:33;;;;;;;7.12;2.47;;;;;;;12.76;100.00;97912.30;1569421;91;21128;-70
2022/05/22 03:36:00;;;;;;;4.15;1.70;;;;;;;12.79;100.00;97907.77;1599466;86;21050;-70
2022/05/22 03:38:27;;;;;;;6.72;1.92;;;;;;;12.84;100.00;97901.65;1625930;87;21067;-69
2022/05/22 03:40:56;;;;;;;6.10;1.90;;;;;;;12.86;100.00;97894.91;1645116;87;21114;-69
2022/05/22 03:43:23;;;;;;;4.50;1.85;;;;;;;12.90;100.00;97912.34;1647975;87;21106;-70
2022/05/22 03:45:50;;;;;;;4.72;1.72;;;;;;;12.95;100.00;97916.25;1648324;87;21531;-70
2022/05/22 03:48:18;;;;;;;5.62;2.15;;;;;;;12.99;100.00;97912.80;1626519;87;21087;-71
2022/05/22 03:50:48;;;;;;;5.00;1.90;;;;;;;13.05;100.00;97906.95;1656449;86;21030;-70
2022/05/22 03:53:17;;;;;;;6.00;2.22;;;;;;;13.08;100.00;97914.11;1657770;86;21559;-70
2022/05/22 03:55:45;;;;;;;2.20;2.00;;;;;;;13.10;100.00;97926.05;1663458;85;21071;-70
2022/05/22 03:58:13;;;;;;;3.87;2.08;;;;;;;13.17;100.00;97926.74;1670959;86;21081;-70
2022/05/22 04:00:41;;;;;;;2.62;2.00;;;;;;;13.22;100.00;97920.06;1671049;86;21559;-70
2022/05/22 04:03:10;;;;;;;6.30;2.80;;;;;;;13.29;100.00;97919.40;1666992;86;21073;-69
2022/05/22 04:05:38;;;;;;;7.22;2.98;;;;;;;13.36;100.00;97923.91;1671153;86;21122;-69
2022/05/22 04:08:07;;;;;;;5.12;2.40;;;;;;;13.38;100.00;97933.45;1670871;86;21097;-70
2022/05/22 04:10:45;;;;;;;6.87;2.80;;;;;;;13.39;100.00;97966.87;1672033;85;21046;-70
2022/05/22 04:13:13;;;;;;;10.48;2.83;;;;;;;13.39;100.00;97957.37;1671197;86;21093;-68
2022/05/22 04:15:40;;;;;;;9.68;3.05;;;;;;;13.41;100.00;97955.23;1671038;86;21590;-68
2022/05/22 04:18:08;;;;;;;5.72;2.70;;;;;;;13.43;100.00;97943.05;1671015;86;21034;-68
2022/05/22 04:20:35;;;;;;;5.37;2.90;;;;;;;13.43;100.00;97973.45;1670633;86;21107;-70
2022/05/22 04:26:07;;;;;;;9.75;3.15;;;;;;;13.38;100.00;97976.06;1671487;86;21057;-70
2022/05/22 04:28:34;;;;;;;8.75;2.80;;;;;;;13.40;100.00;97980.20;1671141;86;21547;-71
2022/05/22 04:31:09;;;;;;;6.92;2.83;;;;;;;13.38;100.00;97979.59;1670938;86;21526;-70
2022/05/22 04:33:38;;;;;;;8.15;3.10;;;;;;;13.37;100.00;97981.19;1663823;86;21096;-70
2022/05/22 04:36:07;;;;;;;8.65;3.30;;;;;;;13.37;100.00;97995.61;1671307;86;21094;-72
2022/05/22 04:38:34;;;;;;;7.58;3.10;;;;;;;13.36;100.00;97992.59;1670439;86;21069;-69
2022/05/22 04:41:02;;;;;;;10.08;3.10;;;;;;;13.38;100.00;97986.38;1671296;86;21053;-70
2022/05/22 04:43:31;;;;;;;7.22;3.17;;;;;;;13.39;100.00;98003.52;1670863;85;21061;-69
2022/05/22 04:45:58;;;;;;;6.85;2.65;;;;;;;13.40;100.00;98007.86;1671394;86;21515;-70
2022/05/22 04:48:27;;;;;;;10.93;3.17;;;;;;;13.39;100.00;98003.52;1670700;86;21057;-69
2022/05/22 04:50:59;;;;;;;7.10;2.90;;;;;;;13.42;100.00;98006.58;1672832;86;21050;-70
2022/05/22 04:53:32;;;;;;;6.28;2.70;;;;;;;13.46;100.00;98011.81;1671086;84;21104;-70
2022/05/22 04:56:12;;;;;;;8.63;2.30;;;;;;;13.50;100.00;98011.34;1671269;86;21630;-69
2022/05/22 04:58:59;;;;;;;8.30;2.20;;;;;;;13.54;100.00;98003.00;1670570;86;21058;-70
2022/05/22 05:01:27;;;;;;;5.10;1.95;;;;;;;13.63;100.00;97996.12;1671237;86;21066;-69
2022/05/22 05:03:56;;;;;;;5.97;1.65;;;;;;;13.74;100.00;97997.99;1670829;85;21070;-70
2022/05/22 05:06:23;;;;;;;7.42;2.20;;;;;;;13.84;100.00;98007.67;1671236;86;21125;-70
2022/05/22 05:08:51;;;;;;;8.80;1.85;;;;;;;13.94;100.00;98009.77;1671296;86;21049;-70
2022/05/22 05:11:21;;;;;;;6.67;2.08;;;;;;;14.00;100.00;98016.12;1670828;85;21050;-70
2022/05/22 05:13:51;;;;;;;8.10;2.10;;;;;;;14.07;100.00;98018.16;1684108;83;21516;-70
2022/05/22 05:16:18;;;;;;;6.53;2.05;;;;;;;14.19;100.00;98018.12;1723191;83;21066;-70
2022/05/22 05:18:48;;;;;;;4.37;1.95;;;;;;;14.32;100.00;98008.28;1659721;86;21074;-69
2022/05/22 05:21:17;;;;;;;7.37;2.35;;;;;;;14.50;100.00;98011.34;1659215;86;21136;-70
2022/05/22 05:23:45;;;;;;;2.50;2.02;;;;;;;14.77;100.00;98015.61;1659667;86;21071;-70
2022/05/22 05:26:14;;;;;;;5.08;2.10;;;;;;;15.11;100.00;98043.34;1656310;86;21100;-71
2022/05/22 05:28:43;;;;;;;2.17;1.75;;;;;;;15.11;100.00;98043.34;1637620;86;21612;-69
2022/05/22 05:31:10;;;;;;;6.53;2.17;;;;;;;15.25;100.00;98075.13;1659313;86;21063;-70
2022/05/22 05:33:40;;;;;;;9.18;2.50;;;;;;;15.30;100.00;98086.91;1659263;86;21686;-69
2022/05/22 05:36:10;;;;;;;4.12;2.20;;;;;;;15.39;100.00;98083.23;1659509;86;21042;-70
2022/05/22 05:38:57;;;;;;;5.90;2.25;;;;;;;15.40;100.00;98094.94;1610172;89;21084;-69
2022/05/22 05:41:29;;;;;;;7.83;2.25;;;;;;;15.32;100.00;98100.28;1607041;89;21071;-68
2022/05/22 05:43:56;;;;;;;4.75;2.52;;;;;;;15.32;100.00;98117.98;1589293;89;21020;-70
2022/05/22 05:46:24;;;;;;;4.85;2.47;;;;;;;15.27;100.00;98117.35;1610539;89;21075;-69
2022/05/22 05:48:51;;;;;;;7.42;2.20;;;;;;;15.28;100.00;98130.42;1610290;89;21529;-71
2022/05/22 05:51:19;;;;;;;5.05;2.25;;;;;;;15.36;100.00;98141.72;1610420;89;21032;-69
2022/05/22 05:53:48;;;;;;;3.87;2.17;;;;;;;15.54;100.00;98143.89;1607114;89;21120;-69
2022/05/22 05:56:32;;;;;;;5.53;2.17;;;;;;;15.73;100.00;98155.35;1536629;93;21124;-69
2022/05/22 05:59:08;;;;;;;5.90;2.22;;;;;;;15.77;100.00;98175.59;1496568;96;21128;-70
2022/05/22 06:01:36;;;;;;;4.03;1.67;;;;;;;15.78;100.00;98199.05;1496737;96;21603;-73
2022/05/22 06:04:05;;;;;;;5.28;2.10;;;;;;;15.85;100.00;98197.53;1496775;96;21067;-70
2022/05/22 06:06:32;;;;;;;3.90;1.40;;;;;;;15.93;100.00;98203.34;1496486;96;21123;-69
2022/05/22 06:09:01;;;;;;;4.62;1.80;;;;;;;16.08;100.00;98207.39;1496498;96;21598;-70
2022/05/22 06:11:46;;;;;;;5.70;1.80;;;;;;;16.13;100.00;98214.28;1494804;96;21075;-70
2022/05/22 06:14:18;;;;;;;4.80;2.07;;;;;;;16.11;100.00;98210.44;1499248;95;21096;-70
2022/05/22 06:16:47;;;;;;;5.40;1.92;;;;;;;16.12;100.00;98216.16;1492285;96;21141;-68
2022/05/22 06:19:16;;;;;;;3.80;2.00;;;;;;;16.07;100.00;98216.09;1492895;96;21276;-69
2022/05/22 06:21:44;;;;;;;2.65;1.50;;;;;;;16.14;100.00;98205.82;1493110;96;21110;-68
2022/05/22 06:24:13;;;;;;;5.87;1.77;;;;;;;16.31;100.00;98196.23;1474131;96;21215;-70
2022/05/22 06:26:42;;;;;;;3.15;1.90;;;;;;;16.44;100.00;98198.30;1490300;96;21654;-72
2022/05/22 06:29:19;;;;;;;3.58;1.80;;;;;;;16.61;100.00;98207.75;1490377;96;21123;-70
2022/05/22 06:32:07;;;;;;;3.62;1.55;;;;;;;16.51;100.00;98239.30;1514764;94;21072;-70
2022/05/22 06:34:36;;;;;;;4.35;1.72;;;;;;;16.46;100.00;98229.69;1515317;94;21119;-69
2022/05/22 06:37:10;;;;;;;2.33;1.82;;;;;;;16.50;100.00;98240.40;1517104;94;21187;-69
2022/05/22 06:39:58;;;;;;;3.08;1.65;;;;;;;16.59;100.00;98245.39;1477617;97;21136;-69
2022/05/22 06:42:44;;;;;;;5.05;1.77;;;;;;;16.74;100.00;98237.95;1444001;98;21220;-69
2022/05/22 06:45:19;;;;;;;3.52;1.60;;;;;;;16.91;100.00;98236.52;1461538;98;21639;-70
2022/05/22 06:47:51;;;;;;;4.80;1.40;;;;;;;16.92;100.00;98245.81;1425010;101;21153;-70
2022/05/22 06:50:27;;;;;;;7.08;1.60;;;;;;;16.96;100.00;98248.86;1431611;100;21142;-70
2022/05/22 06:53:06;;;;;;;4.62;1.52;;;;;;;16.98;100.00;98255.72;1432144;99;21120;-69
2022/05/22 06:55:36;;;;;;;2.27;1.22;;;;;;;17.03;100.00;98273.53;1393313;103;21174;-71
2022/05/22 06:58:17;;;;;;;4.90;1.72;;;;;;;17.04;100.00;98283.91;1388358;103;21644;-68
2022/05/22 07:01:03;;;;;;;1.67;1.35;;;;;;;17.14;100.00;98283.17;1390256;103;21175;-70
2022/05/22 07:03:49;;;;;;;5.25;1.75;;;;;;;17.39;100.00;98284.81;1390458;103;21147;-71
2022/05/22 07:06:20;;;;;;;4.62;1.50;;;;;;;17.58;100.00;98282.55;1387851;103;21234;-70
2022/05/22 07:08:52;;;;;;;2.20;1.77;;;;;;;17.95;100.00;98279.57;1352360;106;21157;-70
2022/05/22 07:11:41;;;;;;;5.30;2.27;;;;;;;18.35;100.00;98291.88;1319347;107;21365;-70
2022/05/22 07:14:28;;;;;;;4.60;1.85;;;;;;;18.70;100.00;98293.17;1290686;109;21220;-70
2022/05/22 07:17:04;;;;;;;3.37;1.57;;;;;;;18.85;100.00;98298.72;1287264;110;21683;-71
2022/05/22 07:19:37;;;;;;;1.92;1.42;;;;;;;18.94;100.00;98329.16;1308081;109;21236;-70
2022/05/22 07:22:07;;;;;;;4.17;1.87;;;;;;;19.13;100.00;98491.14;1308271;109;21687;-70
2022/05/22 07:24:36;;;;;;;3.47;2.08;;;;;;;19.53;100.00;98523.98;1308263;109;21643;-70
2022/05/22 07:27:17;;;;;;;6.30;2.30;;;;;;;19.73;100.00;98543.28;1308107;109;21213;-71
2022/05/22 07:30:04;;;;;;;3.55;1.98;;;;;;;19.76;100.00;98548.79;1308204;109;21194;-71
2022/05/22 07:32:34;;;;;;;3.22;1.75;;;;;;;19.60;100.00;98552.50;1313993;107;21121;-70
2022/05/22 07:35:11;;;;;;;2.35;2.10;;;;;;;19.37;100.00;98561.97;1326338;108;21685;-69
2022/05/22 07:37:53;;;;;;;4.60;2.10;;;;;;;19.27;100.00;98558.08;1323341;106;21208;-71
2022/05/22 07:40:38;;;;;;;4.92;2.00;;;;;;;19.53;100.00;98576.06;1325745;108;21161;-69
2022/05/22 07:43:19;;;;;;;3.20;1.90;;;;;;;19.59;100.00;98576.91;1319191;108;21682;-71
2022/05/22 07:46:05;;;;;;;4.15;1.80;;;;;;;19.74;100.00;98556.44;1374191;102;21073;-71
2022/05/22 07:48:36;;;;;;;4.50;2.40;;;;;;;20.03;100.00;98561.51;1445831;98;21177;-70
2022/05/22 07:51:05;;;;;;;3.60;1.95;;;;;;;20.05;100.00;98558.76;1455425;96;21089;-72
2022/05/22 07:53:37;;;;;;;3.70;2.27;;;;;;;20.23;100.00;98556.62;1458093;97;21133;-72
2022/05/22 07:56:08;;;;;;;4.85;2.33;;;;;;;20.28;100.00;98555.27;1428699;100;21136;-71
2022/05/22 07:58:36;;;;;;;4.50;2.40;;;;;;;20.09;100.00;98550.81;1442240;99;21221;-70
2022/05/22 08:01:22;;;;;;;4.47;2.40;;;;;;;19.89;100.00;98559.81;1442935;99;21145;-71
2022/05/22 08:04:05;;;;;;;3.62;1.50;;;;;;;19.73;100.00;98550.13;1442623;99;21596;-72
2022/05/22 08:06:49;;;;;;;4.92;2.10;;;;;;;19.64;100.00;98564.61;1450645;99;21145;-73
2022/05/22 08:09:18;;;;;;;4.55;1.95;;;;;;;19.34;100.00;98557.30;1459829;98;21206;-72
2022/05/22 08:11:47;;;;;;;3.90;1.20;;;;;;;19.43;100.00;98554.07;1460504;97;21212;-71
2022/05/22 08:14:15;;;;;;;1.70;1.60;;;;;;;19.61;100.00;98553.61;1462853;96;21145;-72
2022/05/22 08:16:43;;;;;;;2.15;1.40;;;;;;;19.54;100.00;98550.28;1463029;98;21149;-72
2022/05/22 08:19:16;;;;;;;4.22;2.02;;;;;;;19.43;100.00;98555.44;1463173;98;21116;-71
2022/05/22 08:21:45;;;;;;;2.27;1.90;;;;;;;19.08;100.00;98549.45;1460417;97;21133;-72
2022/05/22 08:24:15;;;;;;;5.40;2.98;;;;;;;18.82;100.00;98555.27;1462953;98;21195;-72
2022/05/22 08:26:43;;;;;;;7.05;1.90;;;;;;;18.77;100.00;98549.19;1456797;97;21130;-72
2022/05/22 08:29:11;;;;;;;5.30;1.90;;;;;;;19.00;100.00;98533.52;1483550;96;21121;-71
2022/05/22 08:31:42;;;;;;;2.15;1.65;;;;;;;19.40;100.00;98551.30;1527537;92;21129;-72
2022/05/22 08:34:10;;;;;;;3.65;1.80;;;;;;;19.53;100.00;98550.02;1557519;92;21554;-70
2022/05/22 08:36:37;;;;;;;1.67;1.40;;;;;;;19.51;100.00;98553.55;1560157;92;21080;-71
2022/05/22 08:39:05;;;;;;;2.50;1.52;;;;;;;19.58;100.00;98552.77;1559908;92;21173;-70
2022/05/22 08:41:35;;;;;;;2.87;1.35;;;;;;;19.62;100.00;98547.05;1600265;86;21024;-71
2022/05/22 08:44:10;;;;;;;1.82;1.47;;;;;;;19.56;100.00;98537.69;1632555;87;21202;-72
2022/05/22 08:47:04;;;;;;;2.10;1.37;;;;;;;19.45;100.00;98546.41;1505817;94;21119;-70
2022/05/22 08:49:55;;;;;;;2.67;1.20;;;;;;;19.23;100.00;98550.11;1525125;94;21151;-71
2022/05/22 08:52:37;;;;;;;3.35;1.15;;;;;;;18.96;100.00;98546.06;1524908;94;21619;-71
2022/05/22 08:55:20;;;;;;;4.12;1.30;;;;;;;18.85;100.00;98556.67;1524810;94;21139;-69
2022/05/22 09:00:39;;;;;;;3.47;1.17;;;;;;;18.38;100.00;98540.36;1560496;91;20417;-70
2022/05/22 09:03:25;;;;;;;1.57;1.47;;;;;;;18.43;100.00;98525.88;1561097;90;21169;-70
2022/05/22 09:05:58;;;;;;;7.20;1.57;;;;;;;18.77;100.00;98528.66;1554658;92;21301;-71
2022/05/22 09:08:41;;;;;;;2.65;1.20;;;;;;;19.02;100.00;98525.05;1561080;92;21064;-70
2022/05/22 09:11:41;;;;;;;4.05;1.20;;;;;;;19.05;100.00;98517.65;1561036;92;21057;-71
2022/05/22 09:14:23;;;;;;;3.98;1.52;;;;;;;19.22;100.00;98522.97;1570582;90;21065;-69
2022/05/22 09:16:59;;;;;;;5.45;1.55;;;;;;;19.28;100.00;98521.90;1586850;90;21002;-70
2022/05/22 09:19:43;;;;;;;2.17;1.60;;;;;;;19.19;100.00;98516.09;1586596;90;22427;-70
2022/05/22 09:22:53;;;;;;;3.40;1.15;;;;;;;19.22;100.00;98518.31;1559790;92;21147;-69
2022/05/22 09:25:25;;;;;;;2.70;1.30;;;;;;;19.34;100.00;98520.86;1559930;92;21071;-70
2022/05/22 09:27:56;;;;;;;;;;;;;;;19.22;100.00;98508.72;1542980;93;21604;-69
2022/05/22 09:30:54;;;;;;;6.25;2.08;;;;;;;19.01;100.00;98511.06;1540547;93;20121;-70
2022/05/22 09:33:29;;;;;;;1.35;1.25;;;;;;;18.90;100.00;98519.75;1540113;93;21104;-68
2022/05/22 09:36:36;;;;;;;9.13;1.70;;;;;;;18.68;100.00;98520.65;1535941;92;21591;-69
2022/05/22 09:39:18;;;;;;;5.65;1.62;;;;;;;18.59;100.00;98511.23;1540466;93;21104;-67
2022/05/22 09:42:40;;;;;;;4.12;1.52;;;;;;;18.39;100.00;98511.89;1550837;92;21142;-70
2022/05/22 09:45:15;;;;;;;4.92;1.30;;;;;;;18.34;100.00;98502.27;1588010;89;21086;-70
2022/05/22 09:48:06;;;;;;;5.90;1.45;;;;;;;18.80;100.00;98501.28;1562078;92;21087;-70
2022/05/22 09:51:05;;;;;;;3.25;1.90;;;;;;;19.16;100.00;98504.31;1559779;92;21100;-70
2022/05/22 09:54:03;;;;;;;6.50;2.17;;;;;;;19.18;100.00;98511.72;1562028;92;21096;-71
2022/05/22 09:57:10;;;;;;;3.87;1.67;;;;;;;18.87;100.00;98512.86;1542651;90;21657;-72
2022/05/22 09:59:57;;;;;;;7.37;1.77;;;;;;;18.59;100.00;98516.20;1529874;91;21089;-70
2022/05/22 10:02:48;;;;;;;2.62;1.45;;;;;;;18.32;100.00;98509.91;1576510;91;21069;-71
2022/05/22 10:05:35;;;;;;;3.98;1.50;;;;;;;18.24;100.00;98510.37;1610043;89;21592;-70
2022/05/22 10:08:23;;;;;;;4.25;1.52;;;;;;;18.27;100.00;98500.28;1587469;89;21076;-70
2022/05/22 10:11:10;;;;;;;4.92;1.47;;;;;;;18.72;100.00;98493.57;1609769;89;21084;-70
2022/05/22 10:14:21;;;;;;;3.80;1.27;;;;;;;19.23;100.00;98496.69;1607578;89;21110;-71
2022/05/22 10:17:39;;;;;;;3.00;1.22;;;;;;;19.39;100.00;98480.30;1576163;90;21123;-71
2022/05/22 10:20:27;;;;;;;3.17;1.77;;;;;;;19.24;100.00;98480.50;1596929;90;21102;-71
2022/05/22 10:23:18;;;;;;;5.35;2.02;;;;;;;19.00;100.00;98494.33;1593479;90;21041;-70
2022/05/22 10:26:08;;;;;;;5.58;1.90;;;;;;;19.01;100.00;98501.47;1605966;88;21127;-71
2022/05/22 10:28:49;;;;;;;2.55;1.95;;;;;;;19.40;100.00;98485.52;1635702;88;21107;-70
2022/05/22 10:31:31;;;;;;;3.70;1.60;;;;;;;20.02;100.00;98498.13;1623449;88;21088;-71
2022/05/22 10:34:28;;;;;;;4.00;2.10;;;;;;;20.36;100.00;98484.75;1642492;87;21097;-71
2022/05/22 10:36:58;;;;;;;4.28;1.27;;;;;;;20.35;100.00;98490.51;1623074;87;21578;-70
2022/05/22 10:39:25;;;;;;;7.58;1.72;;;;;;;20.11;100.00;98510.20;1623042;88;21033;-70
2022/05/22 10:44:53;;;;;;;5.37;1.40;;;;;;;19.72;100.00;98501.85;1601937;88;21057;-71
2022/05/22 10:47:31;;;;;;;5.70;1.32;;;;;;;19.43;100.00;98497.88;1601946;88;21053;-71
2022/05/22 10:49:59;;;;;;;1.52;1.37;;;;;;;19.18;100.00;98501.31;1623240;88;21057;-69
2022/05/22 10:52:32;;;;;;;1.50;1.22;;;;;;;18.99;100.00;98489.95;1623069;88;21093;-70
2022/05/22 10:55:04;;;;;;;3.12;1.10;;;;;;;19.03;100.00;98492.44;1623448;88;21105;-72
2022/05/22 10:57:32;;;;;;;4.62;1.60;;;;;;;19.45;100.00;98484.73;1607920;87;21680;-69
2022/05/22 11:00:13;;;;;;;5.70;1.70;;;;;;;19.99;100.00;98482.19;1621691;88;21061;-71
2022/05/22 11:02:40;;;;;;;4.55;1.25;;;;;;;20.49;100.00;98488.31;1593461;90;21126;-71
2022/05/22 11:05:18;;;;;;;1.92;1.20;;;;;;;20.58;100.00;98483.09;1593955;90;21097;-69
2022/05/22 11:07:47;;;;;;;3.12;1.57;;;;;;;20.48;100.00;98498.19;1557279;92;21617;-70
2022/05/22 11:10:34;;;;;;;11.90;6.37;;;;;;;20.29;100.00;98482.80;1552885;92;21148;-70
2022/05/22 11:13:10;;;;;;;2.90;2.52;;;;;;;20.06;100.00;98497.84;1486260;95;21595;-70
2022/05/22 11:15:42;;;;;;;4.05;1.52;;;;;;;19.78;100.00;98491.75;1476240;96;21135;-69
2022/05/22 11:18:26;;;;;;;2.50;1.95;;;;;;;19.63;100.00;98495.77;1493883;96;21108;-69
2022/05/22 11:20:58;;;;;;;;;;;;;;;19.59;100.00;98490.55;1534980;92;21092;-69
2022/05/22 11:23:46;;;;;;;1.87;1.40;;;;;;;19.77;100.00;98486.53;1552760;92;20171;-69
2022/05/22 11:26:42;;;;;;;3.35;1.40;;;;;;;19.81;100.00;98493.12;1533377;92;21050;-70
2022/05/22 11:29:52;;;;;;;5.58;1.45;;;;;;;19.82;100.00;98501.08;1533497;92;21634;-70
2022/05/22 11:32:50;;;;;;;2.85;1.42;;;;;;;19.57;98.71;98508.63;1552636;92;21149;-68
2022/05/22 11:35:41;;;;;;;2.40;1.45;;;;;;;19.05;100.00;98506.17;1508868;94;21757;-69
2022/05/22 11:38:28;;;;;;;5.40;2.30;;;;;;;18.82;100.00;98499.13;1489176;94;21129;-70
2022/05/22 11:41:21;;;;;;;6.97;4.58;;;;;;;18.79;100.00;98503.76;1466319;98;21622;-68
2022/05/22 11:44:12;;;;;;;6.40;2.92;;;;;;;18.78;100.00;98501.54;1430951;100;21155;-70
2022/05/22 11:47:08;;;;;;;5.25;2.45;;;;;;;18.74;100.00;98494.13;1420678;101;21198;-71
2022/05/22 11:49:46;;;;;;;3.12;2.15;;;;;;;18.81;100.00;98492.55;1397057;101;21126;-70
2022/05/22 11:56:01;;;;;;;6.00;2.37;;;;;;;19.01;100.00;98480.92;1404312;102;21180;-71
2022/05/22 11:58:40;;;;;;;4.72;2.87;;;;;;;19.16;100.00;98480.47;1382402;103;21213;-70
2022/05/22 12:01:30;;;;;;;4.65;2.70;;;;;;;19.25;100.00;98479.43;1333052;107;21198;-70
2022/05/22 12:04:14;;;;;;;4.75;2.65;;;;;;;19.27;100.00;98472.31;1316651;108;21715;-69
2022/05/22 12:07:01;;;;;;;2.52;2.30;;;;;;;19.28;100.00;98480.80;1338458;107;21560;-68
2022/05/22 12:10:00;;;;;;;3.70;2.47;;;;;;;19.26;100.00;98475.58;1346440;107;21283;-69
2022/05/22 12:12:47;;;;;;;7.10;3.40;;;;;;;19.15;100.00;98477.99;1379126;102;21099;-69
2022/05/22 12:15:49;;;;;;;4.17;3.17;;;;;;;19.07;100.00;98477.11;1388702;102;21623;-71